Time;durP1;ratioP1;P1;durP2;ratioP2;P2;SDS_P1;SDS_P2;PMS_P1;PMS_P2;Temp;Humidity;BMP_temperature;BMP_pressure;BME280_temperature;BME280_humidity;BME280_pressure;Samples;Min_cycle;Max_cycle;Signal;HPM_P1;HPM_P2
2022/05/09 00:01:43;;;;;;;;;;;;;;;15.23;69.80;101337.50;5059862;28;19913;-82
2022/05/09 00:04:27;;;;;;;;;;;;;;;15.32;69.44;101338.25;5071350;28;20381;-81
2022/05/09 00:07:12;;;;;;;;;;;;;;;15.16;70.01;101341.88;5055981;28;19912;-81
2022/05/09 00:09:56;;;;;;;;;;;;;;;15.06;70.14;101343.06;5064874;28;19912;-81
2022/05/09 00:12:41;;;;;;;;;;;;;;;15.12;70.18;101341.75;5045287;28;20305;-81
2022/05/09 00:15:26;;;;;;;;;;;;;;;14.97;71.96;101339.56;5043868;28;19913;-82
2022/05/09 00:18:10;;;;;;;;;;;;;;;14.98;71.87;101341.16;5036369;28;19913;-80
2022/05/09 00:20:55;;;;;;;;;;;;;;;14.86;72.16;101339.13;5040619;28;20381;-82
2022/05/09 00:23:39;;;;;;;;;;;;;;;14.82;72.33;101337.38;5057952;28;19917;-80
2022/05/09 00:26:27;;;;;;;;;;;;;;;14.83;71.67;101338.97;5059231;28;19917;-80
2022/05/09 00:29:14;;;;;;;;;;;;;;;14.76;71.98;101333.19;5055570;28;19924;-80
2022/05/09 00:32:00;;;;;;;;;;;;;;;14.84;71.20;101335.09;5066197;28;19913;-80
2022/05/09 00:34:44;;;;;;;;;;;;;;;14.83;71.46;101347.19;5048378;28;19917;-80
2022/05/09 00:37:28;;;;;;;;;;;;;;;14.77;71.51;101341.09;5040698;28;19913;-80
2022/05/09 00:40:14;;;;;;;;;;;;;;;14.78;71.52;101333.69;5043657;28;19913;-80
2022/05/09 00:43:00;;;;;;;;;;;;;;;14.80;71.46;101339.63;5074490;28;19916;-80
2022/05/09 00:45:44;;;;;;;;;;;;;;;14.77;71.77;101338.34;5058294;28;19916;-80
2022/05/09 00:48:29;;;;;;;;;;;;;;;14.81;71.43;101333.00;5045653;28;19913;-80
2022/05/09 00:51:18;;;;;;;;;;;;;;;14.76;71.38;101333.19;5052833;28;19913;-80
2022/05/09 00:54:03;;;;;;;;;;;;;;;14.67;71.63;101335.16;5058090;28;19913;-80
2022/05/09 00:56:52;;;;;;;;;;;;;;;14.61;71.42;101326.34;5052958;28;19913;-80
2022/05/09 00:59:38;;;;;;;;;;;;;;;14.47;71.13;101326.53;5061356;28;19912;-81
2022/05/09 01:02:23;;;;;;;;;;;;;;;14.41;72.47;101327.84;5062080;28;19913;-81
2022/05/09 01:05:08;;;;;;;;;;;;;;;14.16;72.96;101333.31;5062454;28;19912;-81
2022/05/09 01:07:53;;;;;;;;;;;;;;;14.24;73.10;101337.97;5078300;28;19913;-80
2022/05/09 01:10:40;;;;;;;;;;;;;;;14.27;72.94;101338.16;5063192;28;19917;-79
2022/05/09 01:13:30;;;;;;;;;;;;;;;14.18;73.33;101339.25;5052937;28;19917;-80
2022/05/09 01:16:16;;;;;;;;;;;;;;;14.15;73.16;101338.00;5073450;28;19913;-78
2022/05/09 01:19:06;;;;;;;;;;;;;;;14.22;73.37;101340.25;5058938;28;19912;-78
2022/05/09 01:21:50;;;;;;;;;;;;;;;14.18;73.08;101340.06;5077227;28;19920;-78
2022/05/09 01:24:35;;;;;;;;;;;;;;;14.25;72.78;101343.13;5056840;28;19920;-80
2022/05/09 01:27:20;;;;;;;;;;;;;;;14.16;72.82;101342.34;5078822;28;19913;-79
2022/05/09 01:30:09;;;;;;;;;;;;;;;14.10;73.03;101338.16;5062287;28;19917;-79
2022/05/09 01:32:56;;;;;;;;;;;;;;;14.08;73.10;101341.22;5053006;28;20281;-81
2022/05/09 01:35:46;;;;;;;;;;;;;;;14.12;72.44;101346.81;5045018;28;19912;-78
2022/05/09 01:38:34;;;;;;;;;;;;;;;14.05;72.72;101341.06;5054907;28;20396;-78
2022/05/09 01:41:19;;;;;;;;;;;;;;;14.18;72.24;101345.53;5064597;28;19917;-78
2022/05/09 01:44:04;;;;;;;;;;;;;;;14.12;71.98;101341.34;5050769;28;19916;-78
2022/05/09 01:49:52;;;;;;;;;;;;;;;14.06;72.58;101342.66;5073068;28;19912;-78
2022/05/09 01:52:36;;;;;;;;;;;;;;;14.12;72.10;101341.34;5058900;28;19912;-78
2022/05/09 01:55:20;;;;;;;;;;;;;;;14.01;72.74;101337.38;5052523;28;19913;-78
2022/05/09 01:58:05;;;;;;;;;;;;;;;13.97;73.07;101339.13;5049730;28;19921;-78
2022/05/09 02:00:50;;;;;;;;;;;;;;;14.07;72.85;101347.00;5061753;28;19913;-78
2022/05/09 02:03:35;;;;;;;;;;;;;;;14.20;72.34;101343.28;5058612;28;19925;-78
2022/05/09 02:06:20;;;;;;;;;;;;;;;14.24;72.21;101346.97;5063363;28;19916;-78
2022/05/09 02:09:06;;;;;;;;;;;;;;;14.23;72.24;101350.84;5073022;28;19916;-78
2022/05/09 02:11:50;;;;;;;;;;;;;;;14.03;72.66;101346.03;5060842;28;19912;-77
2022/05/09 02:14:35;;;;;;;;;;;;;;;14.01;72.83;101340.09;5045449;28;19917;-78
2022/05/09 02:17:19;;;;;;;;;;;;;;;14.18;71.32;101345.53;5045483;28;20461;-78
2022/05/09 02:20:05;;;;;;;;;;;;;;;14.22;70.66;101343.75;5056689;28;19912;-77
2022/05/09 02:22:50;;;;;;;;;;;;;;;14.19;70.90;101338.94;5057711;28;19913;-78
2022/05/09 02:25:36;;;;;;;;;;;;;;;14.20;71.34;101334.28;5038153;28;19913;-78
2022/05/09 02:28:23;;;;;;;;;;;;;;;14.17;71.44;101332.97;5038482;28;20003;-78
2022/05/09 02:31:08;;;;;;;;;;;;;;;14.21;71.43;101338.63;5038679;28;19913;-78
2022/05/09 02:33:53;;;;;;;;;;;;;;;14.29;70.94;101338.59;5048741;28;19913;-78
2022/05/09 02:36:37;;;;;;;;;;;;;;;14.17;71.66;101338.44;5045518;28;20364;-78
2022/05/09 02:39:22;;;;;;;;;;;;;;;14.30;71.00;101348.44;5037808;28;20541;-78
2022/05/09 02:42:07;;;;;;;;;;;;;;;14.37;69.74;101350.72;5051360;28;19913;-78
2022/05/09 02:44:54;;;;;;;;;;;;;;;14.52;68.94;101340.06;5070846;28;19917;-78
2022/05/09 02:47:40;;;;;;;;;;;;;;;14.59;67.07;101346.94;5056409;28;19916;-78
2022/05/09 02:50:25;;;;;;;;;;;;;;;14.66;66.99;101345.31;5061738;28;19912;-78
2022/05/09 02:53:11;;;;;;;;;;;;;;;14.64;67.38;101344.03;5047751;28;19913;-78
2022/05/09 02:55:55;;;;;;;;;;;;;;;14.76;67.10;101338.69;5056083;28;19916;-78
2022/05/09 02:58:40;;;;;;;;;;;;;;;14.81;66.45;101341.22;5063657;28;19912;-78
2022/05/09 03:01:24;;;;;;;;;;;;;;;14.76;66.55;101339.47;5057712;28;19920;-78
2022/05/09 03:07:17;;;;;;;;;;;;;;;14.65;66.49;101337.41;5056023;28;19916;-78
2022/05/09 03:10:02;;;;;;;;;;;;;;;14.81;65.92;101339.31;5056831;28;19912;-78
2022/05/09 03:12:46;;;;;;;;;;;;;;;14.84;65.47;101341.38;5057002;28;19912;-78
2022/05/09 03:15:34;;;;;;;;;;;;;;;14.90;64.73;101344.72;5049733;28;19912;-78
2022/05/09 03:18:21;;;;;;;;;;;;;;;14.96;64.70;101349.72;5049376;28;19916;-78
2022/05/09 03:21:06;;;;;;;;;;;;;;;14.94;65.15;101340.19;5069032;28;19920;-78
2022/05/09 03:23:50;;;;;;;;;;;;;;;14.85;65.84;101342.19;5037538;28;19917;-78
2022/05/09 03:26:34;;;;;;;;;;;;;;;14.79;65.91;101338.00;5071048;28;19912;-77
2022/05/09 03:29:20;;;;;;;;;;;;;;;14.84;65.66;101340.56;5036568;28;19913;-78
2022/05/09 03:32:05;;;;;;;;;;;;;;;14.75;66.21;101337.88;5036797;28;20381;-78
2022/05/09 03:34:49;;;;;;;;;;;;;;;14.69;66.80;101339.16;5052071;28;19912;-78
2022/05/09 03:37:34;;;;;;;;;;;;;;;14.67;66.75;101335.16;5051867;28;19913;-78
2022/05/09 03:40:20;;;;;;;;;;;;;;;14.57;67.31;101332.78;5040500;28;19917;-78
2022/05/09 03:43:06;;;;;;;;;;;;;;;14.62;67.08;101338.09;5061002;28;19913;-78
2022/05/09 03:45:52;;;;;;;;;;;;;;;14.57;67.57;101338.25;5048499;28;19912;-77
2022/05/09 03:48:36;;;;;;;;;;;;;;;14.57;67.71;101341.81;5058806;28;19917;-78
2022/05/09 03:51:20;;;;;;;;;;;;;;;14.53;68.28;101347.09;5058202;28;19929;-78
2022/05/09 03:54:05;;;;;;;;;;;;;;;14.61;67.99;101347.41;5070520;28;20377;-78
2022/05/09 03:56:50;;;;;;;;;;;;;;;14.66;67.91;101348.06;5055708;28;20373;-78
2022/05/09 03:59:34;;;;;;;;;;;;;;;14.59;68.61;101355.16;5043281;28;19913;-78
2022/05/09 04:02:18;;;;;;;;;;;;;;;14.65;68.47;101354.66;5046364;28;19913;-78
2022/05/09 04:05:03;;;;;;;;;;;;;;;14.60;68.52;101354.81;5050745;28;19920;-78
2022/05/09 04:07:49;;;;;;;;;;;;;;;14.68;68.20;101359.47;5045222;28;19913;-78
2022/05/09 04:10:34;;;;;;;;;;;;;;;14.69;67.58;101360.25;5050387;28;19912;-78
2022/05/09 04:13:19;;;;;;;;;;;;;;;14.74;67.12;101357.34;5069358;28;19913;-78
2022/05/09 04:19:09;;;;;;;;;;;;;;;14.67;68.07;101368.81;5052796;28;19920;-78
2022/05/09 04:21:53;;;;;;;;;;;;;;;14.67;67.11;101368.03;5046557;28;19913;-78
2022/05/09 04:24:38;;;;;;;;;;;;;;;14.84;65.79;101370.69;5070131;28;19916;-78
2022/05/09 04:27:22;;;;;;;;;;;;;;;14.97;64.83;101373.22;5048857;28;19912;-78
2022/05/09 04:30:08;;;;;;;;;;;;;;;15.06;64.62;101378.66;5055806;28;19913;-78
2022/05/09 04:32:53;;;;;;;;;;;;;;;15.05;65.04;101387.19;5047201;28;19913;-77
2022/05/09 04:35:39;;;;;;;;;;;;;;;14.96;65.33;101381.75;5055387;28;19913;-78
2022/05/09 04:38:24;;;;;;;;;;;;;;;15.04;65.08;101383.66;5055959;28;19912;-78
2022/05/09 04:41:10;;;;;;;;;;;;;;;15.15;64.78;101387.63;5052458;28;19925;-78
2022/05/09 04:43:54;;;;;;;;;;;;;;;15.10;64.84;101384.28;5044225;28;20386;-78
2022/05/09 04:46:39;;;;;;;;;;;;;;;15.16;65.48;101392.00;5052844;28;22027;-75
2022/05/09 04:49:23;;;;;;;;;;;;;;;15.31;65.09;101396.91;5042554;28;19976;-75
2022/05/09 04:52:07;;;;;;;;;;;;;;;15.43;65.39;101400.88;5045269;28;20397;-75
2022/05/09 04:54:52;;;;;;;;;;;;;;;15.49;64.93;101407.78;5047940;28;20289;-75
2022/05/09 04:57:38;;;;;;;;;;;;;;;15.42;65.71;101408.31;5048778;28;20265;-75
2022/05/09 05:00:25;;;;;;;;;;;;;;;15.43;65.78;101409.13;5039027;28;19913;-75
2022/05/09 05:03:09;;;;;;;;;;;;;;;15.66;65.05;101415.94;5041884;28;19920;-75
2022/05/09 05:05:54;;;;;;;;;;;;;;;16.17;65.36;101415.56;5046705;28;19912;-75
2022/05/09 05:08:38;;;;;;;;;;;;;;;16.40;63.12;101417.97;5031168;28;20003;-75
2022/05/09 05:11:23;;;;;;;;;;;;;;;16.46;62.98;101422.06;5046047;28;19913;-75
2022/05/09 05:14:07;;;;;;;;;;;;;;;16.57;62.23;101413.09;5054828;28;20302;-74
2022/05/09 05:17:01;;;;;;;;;;;;;;;16.71;62.71;101418.31;5049322;28;19913;-75
2022/05/09 05:19:45;;;;;;;;;;;;;;;16.75;62.93;101423.94;5049558;28;20321;-75
2022/05/09 05:22:34;;;;;;;;;;;;;;;16.89;62.77;101427.16;5068816;28;19912;-75
2022/05/09 05:25:20;;;;;;;;;;;;;;;16.75;63.25;101421.19;5053878;28;19943;-75
2022/05/09 05:28:05;;;;;;;;;;;;;;;16.73;63.50;101420.72;5050984;28;19912;-75
2022/05/09 05:30:49;;;;;;;;;;;;;;;16.72;63.64;101424.59;5042397;28;19913;-75
2022/05/09 05:33:33;;;;;;;;;;;;;;;16.67;63.35;101429.16;5039146;28;19913;-75
2022/05/09 05:36:20;;;;;;;;;;;;;;;16.79;63.63;101431.16;5055024;28;19913;-75
2022/05/09 05:39:07;;;;;;;;;;;;;;;16.95;62.80;101429.38;5053546;28;19913;-77
2022/05/09 05:41:52;;;;;;;;;;;;;;;17.05;62.84;101433.63;5048361;28;19913;-77
2022/05/09 05:44:39;;;;;;;;;;;;;;;17.24;62.38;101438.56;5050226;28;20003;-77
2022/05/09 05:47:24;;;;;;;;;;;;;;;17.33;62.16;101442.00;5048625;28;20285;-75
2022/05/09 05:50:10;;;;;;;;;;;;;;;17.42;62.08;101443.47;5055429;28;19921;-75
2022/05/09 05:52:55;;;;;;;;;;;;;;;17.52;62.11;101445.00;5066192;28;19912;-74
2022/05/09 05:55:40;;;;;;;;;;;;;;;17.64;61.55;101450.50;5054526;28;19912;-75
2022/05/09 05:58:26;;;;;;;;;;;;;;;17.81;61.32;101450.28;5054367;28;19912;-75
2022/05/09 06:01:11;;;;;;;;;;;;;;;17.95;60.37;101456.22;5054618;28;20377;-75
2022/05/09 06:03:55;;;;;;;;;;;;;;;18.02;60.73;101460.34;5048799;28;20416;-75
2022/05/09 06:06:40;;;;;;;;;;;;;;;18.34;59.62;101457.34;5049988;28;19913;-75
2022/05/09 06:09:24;;;;;;;;;;;;;;;18.61;58.11;101461.31;5042620;28;19913;-75
2022/05/09 06:12:09;;;;;;;;;;;;;;;18.76;57.61;101463.31;5045786;28;19920;-75
2022/05/09 06:17:58;;;;;;;;;;;;;;;18.87;57.77;101471.06;5051908;28;19913;-74
2022/05/09 06:20:43;;;;;;;;;;;;;;;18.86;58.37;101472.22;5072446;28;19912;-75
2022/05/09 06:23:29;;;;;;;;;;;;;;;18.99;58.34;101468.25;5053206;28;19913;-75
2022/05/09 06:26:14;;;;;;;;;;;;;;;19.35;57.40;101479.00;5036687;28;19912;-75
2022/05/09 06:28:59;;;;;;;;;;;;;;;19.49;56.79;101484.94;5040411;28;19912;-75
2022/05/09 06:31:44;;;;;;;;;;;;;;;19.32;57.27;101478.94;5046187;28;19913;-74
2022/05/09 06:34:29;;;;;;;;;;;;;;;19.75;55.87;101483.59;5042687;28;19917;-75
2022/05/09 06:37:13;;;;;;;;;;;;;;;19.92;55.01;101483.19;5053091;28;20285;-75
2022/05/09 06:39:57;;;;;;;;;;;;;;;20.30;54.92;101486.00;5050183;28;20513;-75
2022/05/09 06:42:46;;;;;;;;;;;;;;;20.91;52.76;101488.88;5047919;28;19920;-75
2022/05/09 06:45:32;;;;;;;;;;;;;;;21.12;51.72;101485.69;5041989;28;19917;-75
2022/05/09 06:48:16;;;;;;;;;;;;;;;21.24;51.34;101491.06;5045893;28;19913;-75
2022/05/09 06:51:01;;;;;;;;;;;;;;;21.31;51.34;101488.44;5054183;28;19913;-75
2022/05/09 06:53:46;;;;;;;;;;;;;;;22.32;48.77;101488.78;5048629;28;19912;-75
2022/05/09 06:56:31;;;;;;;;;;;;;;;25.37;41.35;101497.31;5070769;28;19912;-75
2022/05/09 06:59:16;;;;;;;;;;;;;;;28.21;34.23;101505.91;5047211;28;19912;-74
2022/05/09 07:02:01;;;;;;;;;;;;;;;27.83;33.62;101501.50;5046301;28;19913;-75
2022/05/09 07:04:45;;;;;;;;;;;;;;;30.38;29.58;101506.13;5052861;28;20400;-76
2022/05/09 07:07:30;;;;;;;;;;;;;;;30.98;27.95;101510.50;5038915;28;20293;-75
2022/05/09 07:10:15;;;;;;;;;;;;;;;29.93;29.57;101508.63;5038026;28;19914;-76
2022/05/09 07:13:01;;;;;;;;;;;;;;;29.54;29.83;101510.09;5068698;28;19913;-76
2022/05/09 07:15:46;;;;;;;;;;;;;;;29.81;29.53;101514.84;5050881;28;19920;-76
2022/05/09 07:18:30;;;;;;;;;;;;;;;32.37;25.85;101519.00;5047153;28;19913;-76
2022/05/09 07:21:14;;;;;;;;;;;;;;;33.29;24.09;101522.66;5044074;28;19916;-76
2022/05/09 07:24:00;;;;;;;;;;;;;;;33.00;24.80;101510.69;5049929;28;19917;-75
2022/05/09 07:26:44;;;;;;;;;;;;;;;32.86;24.72;101514.75;5046076;28;19917;-77
2022/05/09 07:29:29;;;;;;;;;;;;;;;30.63;27.04;101514.09;5052229;28;19913;-75
2022/05/09 07:32:13;;;;;;;;;;;;;;;31.74;23.90;101516.72;5044539;28;19912;-76
2022/05/09 07:34:57;;;;;;;;;;;;;;;32.30;24.06;101516.41;5050797;28;19925;-76
2022/05/09 07:37:42;;;;;;;;;;;;;;;33.10;23.17;101521.63;5047581;28;19916;-76
2022/05/09 07:40:26;;;;;;;;;;;;;;;32.91;23.87;101525.47;5041985;28;19917;-76
2022/05/09 07:43:14;;;;;;;;;;;;;;;34.41;21.90;101526.88;5042494;28;19916;-76
2022/05/09 07:45:59;;;;;;;;;;;;;;;35.90;18.70;101525.31;5044964;28;20377;-76
2022/05/09 07:48:44;;;;;;;;;;;;;;;35.85;19.00;101525.94;5039938;28;19913;-75
2022/05/09 07:51:28;;;;;;;;;;;;;;;34.99;19.76;101521.41;5043035;28;19913;-76
2022/05/09 07:54:12;;;;;;;;;;;;;;;31.42;23.20;101518.28;5052547;28;19912;-75
2022/05/09 07:56:57;;;;;;;;;;;;;;;25.09;33.08;101515.59;5043263;28;19917;-75
2022/05/09 07:59:42;;;;;;;;;;;;;;;25.57;31.80;101508.91;5043919;28;19920;-75
2022/05/09 08:02:26;;;;;;;;;;;;;;;25.97;32.47;101509.25;5037472;28;19917;-75
2022/05/09 08:05:11;;;;;;;;;;;;;;;25.79;32.76;101511.28;5048112;28;19916;-75
2022/05/09 08:07:55;;;;;;;;;;;;;;;26.11;32.67;101514.00;5046149;28;19924;-75
2022/05/09 08:10:41;;;;;;;;;;;;;;;30.94;25.78;101523.81;5039340;28;19913;-76
2022/05/09 08:13:28;;;;;;;;;;;;;;;34.96;21.38;101536.47;5047500;28;19917;-75
2022/05/09 08:16:14;;;;;;;;;;;;;;;35.16;20.48;101529.16;5049030;28;19913;-75
2022/05/09 08:18:59;;;;;;;;;;;;;;;37.56;18.32;101530.09;5038684;28;19913;-75
2022/05/09 08:21:47;;;;;;;;;;;;;;;38.15;16.97;101536.75;5048116;28;19912;-76
2022/05/09 08:24:32;;;;;;;;;;;;;;;38.36;17.06;101534.81;5042334;28;19917;-75
2022/05/09 08:27:17;;;;;;;;;;;;;;;37.48;16.95;101537.38;5043659;28;20298;-75
2022/05/09 08:30:02;;;;;;;;;;;;;;;35.38;18.97;101528.34;5054724;28;19913;-77
2022/05/09 08:32:47;;;;;;;;;;;;;;;29.45;26.33;101520.25;5055877;28;19917;-75
2022/05/09 08:35:32;;;;;;;;;;;;;;;26.87;32.27;101513.34;5051661;28;20334;-76
2022/05/09 08:38:17;;;;;;;;;;;;;;;25.47;33.38;101507.69;5037757;28;19913;-76
2022/05/09 08:41:02;;;;;;;;;;;;;;;24.32;35.12;101506.97;5033875;28;19913;-76
2022/05/09 08:44:05;;;;;;;;;;;;;;;23.21;39.29;101510.81;5035580;28;19924;-76
2022/05/09 08:47:09;;;;;;;;;;;;;;;22.58;40.47;101508.94;5050193;28;19912;-76
2022/05/09 08:49:56;;;;;;;;;;;;;;;22.22;39.98;101503.28;5061059;28;20301;-76
2022/05/09 08:52:45;;;;;;;;;;;;;;;21.97;41.17;101506.50;5045198;28;20369;-76
2022/05/09 08:55:36;;;;;;;;;;;;;;;21.72;42.01;101502.53;5045624;28;19913;-76
2022/05/09 08:58:39;;;;;;;;;;;;;;;21.65;41.60;101500.44;5043711;28;20293;-76
2022/05/09 09:01:32;;;;;;;;;;;;;;;21.53;42.03;101497.09;5035765;28;19916;-76
2022/05/09 09:04:21;;;;;;;;;;;;;;;21.29;43.54;101499.06;5035668;28;19921;-75
2022/05/09 09:07:08;;;;;;;;;;;;;;;21.22;43.61;101498.13;5035694;28;19913;-76
2022/05/09 09:09:57;;;;;;;;;;;;;;;21.30;43.58;101495.13;5054768;28;19913;-76
2022/05/09 09:12:51;;;;;;;;;;;;;;;21.21;43.61;101505.63;5049626;28;19913;-75
2022/05/09 09:15:49;;;;;;;;;;;;;;;21.09;43.67;101494.72;5041776;28;20293;-75
2022/05/09 09:18:42;;;;;;;;;;;;;;;20.84;44.60;101502.53;5054168;28;19913;-76
2022/05/09 09:21:26;;;;;;;;;;;;;;;20.83;44.77;101505.66;5048498;28;20393;-75
2022/05/09 09:24:16;;;;;;;;;;;;;;;20.84;44.80;101510.03;5043857;28;19917;-76
2022/05/09 09:27:10;;;;;;;;;;;;;;;20.86;44.85;101502.19;5035356;28;19913;-76
2022/05/09 09:29:58;;;;;;;;;;;;;;;20.70;45.00;101505.03;5043378;28;19917;-76
2022/05/09 09:32:45;;;;;;;;;;;;;;;20.73;45.45;101511.78;5044144;28;19913;-75
2022/05/09 09:35:32;;;;;;;;;;;;;;;20.69;45.31;101505.38;5046841;28;19913;-76
2022/05/09 09:38:35;;;;;;;;;;;;;;;20.66;45.17;101503.38;5067943;28;20320;-75
2022/05/09 09:41:23;;;;;;;;;;;;;;;20.75;45.00;101495.63;5044718;28;20370;-75
2022/05/09 09:44:15;;;;;;;;;;;;;;;20.86;44.78;101499.41;5044716;28;19920;-75
2022/05/09 09:47:03;;;;;;;;;;;;;;;20.71;45.07;101495.56;5053543;28;19913;-75
2022/05/09 09:49:49;;;;;;;;;;;;;;;20.67;45.66;101499.44;5044142;28;19917;-76
2022/05/09 09:52:40;;;;;;;;;;;;;;;20.76;45.13;101497.25;5044943;28;19912;-75
2022/05/09 09:55:29;;;;;;;;;;;;;;;20.74;45.58;101499.56;5067295;28;20294;-76
2022/05/09 09:58:22;;;;;;;;;;;;;;;20.79;44.86;101491.78;5041189;28;19912;-76
2022/05/09 10:01:12;;;;;;;;;;;;;;;20.85;44.92;101495.03;5044596;28;19913;-75
2022/05/09 10:04:05;;;;;;;;;;;;;;;20.77;45.34;101485.03;5054584;28;19916;-75
2022/05/09 10:07:12;;;;;;;;;;;;;;;21.10;44.54;101485.25;5050464;28;19917;-76
2022/05/09 10:10:15;;;;;;;;;;;;;;;20.94;45.02;101479.03;5087309;23;20573;-78
2022/05/09 10:13:16;;;;;;;;;;;;;;;20.81;45.50;101483.13;5075804;28;19917;-78
2022/05/09 10:16:05;;;;;;;;;;;;;;;20.76;45.37;101487.00;5082908;28;20385;-79
2022/05/09 10:18:50;;;;;;;;;;;;;;;20.58;45.69;101487.78;5080917;28;20008;-79
2022/05/09 10:24:51;;;;;;;;;;;;;;;20.46;46.03;101484.03;5080362;28;19916;-79
2022/05/09 10:27:36;;;;;;;;;;;;;;;20.48;46.58;101478.13;5055355;28;19925;-78
2022/05/09 10:30:22;;;;;;;;;;;;;;;20.34;47.11;101475.88;5064650;28;19912;-77
2022/05/09 10:33:33;;;;;;;;;;;;;;;20.36;46.79;101473.56;5058169;28;19913;-77
2022/05/09 10:36:21;;;;;;;;;;;;;;;20.27;47.16;101464.63;5064413;28;19926;-79
2022/05/09 10:39:16;;;;;;;;;;;;;;;20.31;47.00;101468.31;5065872;28;19912;-79
2022/05/09 10:42:04;;;;;;;;;;;;;;;20.14;47.56;101462.38;5056000;28;19913;-78
2022/05/09 10:44:48;;;;;;;;;;;;;;;20.37;47.36;101466.03;5058516;28;19918;-78
2022/05/09 10:47:33;;;;;;;;;;;;;;;20.38;46.98;101464.88;5049114;28;19913;-78
2022/05/09 10:50:38;;;;;;;;;;;;;;;20.62;45.71;101466.56;5043816;28;20538;-79
2022/05/09 10:53:25;;;;;;;;;;;;;;;20.61;46.16;101467.72;5056698;28;19912;-79
2022/05/09 10:56:16;;;;;;;;;;;;;;;20.22;46.96;101458.59;5075958;28;19912;-78
2022/05/09 10:59:04;;;;;;;;;;;;;;;20.26;47.42;101454.75;5061177;28;20312;-78
2022/05/09 11:02:07;;;;;;;;;;;;;;;20.16;47.09;101447.06;5047867;28;19917;-79
2022/05/09 11:04:52;;;;;;;;;;;;;;;20.23;47.41;101451.91;5067997;28;19920;-78
2022/05/09 11:07:53;;;;;;;;;;;;;;;20.14;47.41;101446.59;5051661;28;19912;-77
2022/05/09 11:10:56;;;;;;;;;;;;;;;19.83;48.53;101441.16;5068658;28;19916;-79
2022/05/09 11:13:59;;;;;;;;;;;;;;;19.82;48.81;101437.59;5066498;28;19913;-78
2022/05/09 11:17:04;;;;;;;;;;;;;;;19.99;48.33;101442.72;5063904;28;19913;-79
2022/05/09 11:19:54;;;;;;;;;;;;;;;20.08;48.31;101442.50;5065700;28;19912;-78
2022/05/09 11:22:45;;;;;;;;;;;;;;;20.22;47.58;101436.47;5096553;28;19912;-80
2022/05/09 11:25:32;;;;;;;;;;;;;;;20.28;47.75;101441.38;5080877;28;19916;-79
2022/05/09 11:28:29;;;;;;;;;;;;;;;20.36;46.91;101431.31;5081905;28;19916;-79
2022/05/09 11:31:13;;;;;;;;;;;;;;;20.16;47.83;101424.97;5082692;28;19924;-80
2022/05/09 11:34:07;;;;;;;;;;;;;;;20.17;47.90;101426.53;5062010;28;19912;-78
2022/05/09 11:37:05;;;;;;;;;;;;;;;20.05;47.71;101416.44;5078103;28;19912;-78
2022/05/09 11:40:08;;;;;;;;;;;;;;;20.06;47.75;101420.78;5072497;28;19913;-79
2022/05/09 11:46:19;;;;;;;;;;;;;;;20.00;48.25;101421.44;5053842;28;19920;-78
2022/05/09 11:49:18;;;;;;;;;;;;;;;20.08;48.30;101407.41;5055043;28;19913;-79
2022/05/09 11:52:09;;;;;;;;;;;;;;;19.64;49.17;101371.00;5053878;28;19913;-79
2022/05/09 11:55:00;;;;;;;;;;;;;;;19.85;49.00;101408.50;5061167;28;19912;-79
2022/05/09 11:57:56;;;;;;;;;;;;;;;19.86;48.61;101412.88;5046901;28;19920;-78
2022/05/09 12:00:43;;;;;;;;;;;;;;;19.99;48.69;101408.81;5043469;28;19913;-75
2022/05/09 12:03:40;;;;;;;;;;;;;;;20.32;47.74;101394.50;5041703;28;19913;-79
2022/05/09 12:06:33;;;;;;;;;;;;;;;21.09;44.69;101403.44;5037290;28;19921;-77
2022/05/09 12:09:38;;;;;;;;;;;;;;;21.09;44.82;101406.19;5035353;28;19917;-78
2022/05/09 12:12:40;;;;;;;;;;;;;;;21.19;44.29;101400.06;5034756;28;19913;-77
2022/05/09 12:15:25;;;;;;;;;;;;;;;21.04;44.81;101397.41;5048377;28;19912;-78
2022/05/09 12:18:16;;;;;;;;;;;;;;;21.08;44.31;101404.59;5060295;28;19912;-76
2022/05/09 12:21:15;;;;;;;;;;;;;;;21.07;44.80;101391.16;5058088;28;19913;-80
2022/05/09 12:24:18;;;;;;;;;;;;;;;21.50;44.95;101387.09;5047060;28;19913;-78
2022/05/09 12:27:23;;;;;;;;;;;;;;;22.15;42.10;101388.41;5052946;28;19917;-77
2022/05/09 12:30:26;;;;;;;;;;;;;;;22.40;41.85;101383.16;5049450;28;19917;-76
2022/05/09 12:33:29;;;;;;;;;;;;;;;22.56;41.52;101388.47;5060476;28;19912;-76
2022/05/09 12:36:20;;;;;;;;;;;;;;;22.73;40.48;101385.13;5062250;28;19913;-77
2022/05/09 12:39:07;;;;;;;;;;;;;;;22.24;41.80;101379.84;5053463;28;19913;-78
2022/05/09 12:41:56;;;;;;;;;;;;;;;21.91;42.89;101379.78;5055218;28;19913;-77
2022/05/09 12:44:44;;;;;;;;;;;;;;;22.73;39.44;101374.03;5049293;28;19913;-76
2022/05/09 12:47:33;;;;;;;;;;;;;;;22.17;41.79;101382.50;5057522;28;19912;-76
2022/05/09 12:50:21;;;;;;;;;;;;;;;22.93;40.28;101375.41;5068089;28;20313;-79
2022/05/09 12:53:09;;;;;;;;;;;;;;;22.98;40.52;101366.75;5054771;28;19913;-76
2022/05/09 12:55:56;;;;;;;;;;;;;;;23.20;39.60;101380.78;5066283;28;19912;-78
2022/05/09 12:58:42;;;;;;;;;;;;;;;22.85;40.14;101379.31;5057285;28;19913;-76
2022/05/09 13:01:27;;;;;;;;;;;;;;;23.11;37.98;101375.53;5056750;28;19913;-76
2022/05/09 13:04:20;;;;;;;;;;;;;;;22.90;39.67;101370.66;5059616;28;20220;-78
2022/05/09 13:07:06;;;;;;;;;;;;;;;22.90;40.11;101365.09;5041733;28;19917;-76
2022/05/09 13:09:55;;;;;;;;;;;;;;;22.73;40.58;101367.69;5037757;28;19913;-77
2022/05/09 13:12:43;;;;;;;;;;;;;;;22.87;40.53;101365.03;5039483;28;19913;-79
2022/05/09 13:15:28;;;;;;;;;;;;;;;22.55;41.52;101364.72;5038829;28;19917;-78
2022/05/09 13:18:17;;;;;;;;;;;;;;;22.64;41.15;101359.66;5041355;28;19917;-75
2022/05/09 13:21:04;;;;;;;;;;;;;;;22.59;41.15;101354.47;5063409;28;19912;-77
2022/05/09 13:23:50;;;;;;;;;;;;;;;23.05;39.91;101359.66;5066078;28;19913;-77
2022/05/09 13:26:38;;;;;;;;;;;;;;;22.58;40.29;101356.44;5061465;28;19917;-80
2022/05/09 13:29:24;;;;;;;;;;;;;;;22.55;39.88;101357.19;5057180;28;19913;-76
2022/05/09 13:32:22;;;;;;;;;;;;;;;22.81;39.03;101356.28;5068586;28;19921;-79
2022/05/09 13:35:26;;;;;;;;;;;;;;;22.38;41.27;101351.47;5054829;28;19913;-78
2022/05/09 13:38:18;;;;;;;;;;;;;;;21.09;44.40;101345.34;5058761;28;19912;-77
2022/05/09 13:41:06;;;;;;;;;;;;;;;20.76;46.45;101340.47;5055494;28;19913;-77
2022/05/09 13:43:54;;;;;;;;;;;;;;;20.30;48.55;101349.84;5078659;28;19912;-77
2022/05/09 13:46:40;;;;;;;;;;;;;;;20.05;49.39;101347.41;5087565;28;19917;-78
2022/05/09 13:49:25;;;;;;;;;;;;;;;20.13;49.23;101342.81;5069916;28;19913;-79
2022/05/09 13:52:12;;;;;;;;;;;;;;;20.01;49.50;101340.22;5058898;28;20475;-80
2022/05/09 13:54:57;;;;;;;;;;;;;;;19.85;50.05;101347.78;5069721;28;19916;-78
2022/05/09 13:57:41;;;;;;;;;;;;;;;19.74;50.53;101353.06;5067133;28;19912;-79
2022/05/09 14:00:30;;;;;;;;;;;;;;;19.66;50.33;101343.00;5065675;28;19912;-78
2022/05/09 14:03:36;;;;;;;;;;;;;;;19.82;50.00;101346.53;5061689;28;19917;-79
2022/05/09 14:06:28;;;;;;;;;;;;;;;19.76;50.54;101355.47;5064575;28;19917;-79
2022/05/09 14:09:19;;;;;;;;;;;;;;;19.60;51.67;101358.28;5068811;28;19913;-78
2022/05/09 14:12:04;;;;;;;;;;;;;;;19.45;53.96;101351.66;5061973;28;19912;-79
2022/05/09 14:14:59;;;;;;;;;;;;;;;19.52;55.55;101350.97;5060274;28;19917;-78
2022/05/09 14:17:53;;;;;;;;;;;;;;;19.54;56.44;101334.88;5057744;28;20289;-78
2022/05/09 14:20:40;;;;;;;;;;;;;;;19.49;58.48;101338.72;5048442;28;19913;-79
2022/05/09 14:23:25;;;;;;;;;;;;;;;19.50;59.49;101329.28;5056808;28;20332;-79
2022/05/09 14:29:36;;;;;;;;;;;;;;;19.47;59.94;101326.44;5070450;28;19912;-78
2022/05/09 14:32:40;;;;;;;;;;;;;;;19.40;60.84;101320.75;5064443;28;19913;-78
2022/05/09 14:35:41;;;;;;;;;;;;;;;19.49;60.56;101313.91;5042460;28;19938;-79
2022/05/09 14:38:27;;;;;;;;;;;;;;;19.55;60.38;101311.66;5060133;28;20329;-77
2022/05/09 14:41:36;;;;;;;;;;;;;;;19.48;60.90;101306.78;5044821;28;19912;-79
2022/05/09 14:44:33;;;;;;;;;;;;;;;19.46;61.18;101320.13;5050543;28;20304;-79